Flag for Germany

Past Weather in Büsingen am Hochrhein, Baden-Württemberg, Germany — Yesterday and Last 2 Weeks

Currently: 28 °F. Clear. (Weather station: Zurich-Kloten, Germany). See more current weather

Past Weather in Büsingen am Hochrhein — Graph

°F

Büsingen am Hochrhein Temperature Yesterday

Maximum temperature yesterday: 43 °F (at 2:20 pm)
Minimum temperature yesterday: 21 °F (at 5:20 am)
Average temperature yesterday: 30 °F

High & Low Weather Summary for the Past Weeks

 TemperatureHumidityPressure
High43 °F (Jan 20, 2:20 pm)100% (Jan 6, 4:50 pm)30.36 "Hg (Jan 6, 4:50 pm)
Low7 °F (Jan 16, 1:50 am)52% (Jan 19, 2:50 pm)29.65 "Hg (Jan 21, 12:50 am)
Average30 °F86%30.07 "Hg
* Reported Jan 6 2:20 am — Jan 21 1:50 am, Büsingen am Hochrhein. Weather by CustomWeather, © 2021

Note: Actual official high and low records may vary slightly from our data, if they occured in-between our weather recording intervals... More about our weather records

Büsingen am Hochrhein Weather History for the Previous 24 Hours

Scroll right to see more
 ConditionsComfort  
Time TempWeatherWind HumidityBarometerVisibility
1:50 am
Thu, Jan 21
27 °FClear.3 mph93%29.65 "Hg10 mi
12:50 am27 °FClear.2 mph93%29.65 "Hg10 mi
12:20 am28 °FClear.3 mph93%29.68 "Hg10 mi
11:50 pm
Wed, Jan 20
28 °FClear.3 mph93%29.68 "Hg10 mi
11:20 pm27 °FClear.1 mph93%29.68 "Hg10 mi
10:50 pm27 °FClear.2 mph100%29.68 "Hg10 mi
10:20 pm27 °FClear.1 mph100%29.68 "Hg10 mi
9:50 pm27 °FClear.1 mph93%29.68 "Hg10 mi
9:20 pm25 °FClear.2 mph100%29.68 "Hg10 mi
8:50 pm25 °FClear.3 mph100%29.68 "Hg10 mi
8:20 pm27 °FClear.6 mph93%29.68 "Hg10 mi
7:50 pm28 °FClear.3 mph86%29.71 "Hg10 mi
7:20 pm28 °FClear.2 mph86%29.71 "Hg10 mi
6:50 pm28 °FClear.2 mph86%29.71 "Hg10 mi
6:20 pm32 °FClear.1 mph87%29.71 "Hg10 mi
5:50 pm34 °FClear.1 mph75%29.71 "Hg10 mi
5:20 pm37 °FClear.1 mph65%29.71 "Hg10 mi
4:50 pm39 °FSunny.3 mph65%29.71 "Hg10 mi
4:20 pm43 °FSunny.5 mph53%29.74 "Hg10 mi
3:50 pm43 °FSunny.2 mph53%29.74 "Hg10 mi
3:20 pm41 °FSunny.2 mph61%29.77 "Hg10 mi
2:50 pm43 °FSunny.2 mph53%29.77 "Hg10 mi
2:20 pm43 °FSunny.2 mph53%29.77 "Hg10 mi
1:50 pm41 °FSunny.3 mph57%29.80 "Hg10 mi
1:20 pm39 °FSunny.5 mph65%29.80 "Hg10 mi
12:50 pm39 °FSunny.6 mph65%29.83 "Hg10 mi
12:20 pm39 °FSunny.8 mph61%29.83 "Hg10 mi
11:50 am37 °FSunny.9 mph70%29.83 "Hg10 mi
11:20 am37 °FSunny.9 mph70%29.86 "Hg10 mi
10:50 am36 °FSunny.9 mph70%29.86 "Hg10 mi
10:20 am34 °FSunny.9 mph75%29.89 "Hg10 mi
9:50 am30 °FSunny.3 mph86%29.89 "Hg10 mi
9:20 am27 °FSunny.1 mph86%29.89 "Hg10 mi
8:50 am27 °FSunny.1 mph93%29.89 "Hg10 mi
8:20 am23 °FSunny.1 mph100%29.89 "Hg10 mi
7:50 am23 °FClear.5 mph93%29.89 "Hg10 mi
7:20 am23 °FClear.3 mph93%29.92 "Hg10 mi
6:50 am21 °FClear.2 mph100%29.92 "Hg10 mi
6:20 am23 °FFog.6 mph93%29.92 "HgN/A
5:50 am23 °FFog.1 mph100%29.92 "Hg4 mi
5:20 am21 °FFog.1 mph93%29.92 "Hg4 mi
4:50 am25 °FFog.2 mph93%29.92 "Hg4 mi
4:20 am27 °FFog.2 mph100%29.95 "HgN/A
3:50 am25 °FClear.3 mph86%29.95 "Hg10 mi
3:20 am25 °FClear.3 mph93%29.95 "Hg10 mi
Weather by CustomWeather, © 2021

See weather overview